• Join FlightAware (Why Join?)
  • Login
  • US Flag 
05:29AM EDT


 

Airport Tracker/Info


-or-


 

Live Flight TrackerFlight Track Log ✈ UPS9701 ✈ 03-May-2012 ✈ KSWF - KEWR

Flight Track Log - Related Links

Times and Time Zones

All times are in EDT time to prevent confusion due to time zone crossing. See the UPS9701 flight status page for this flight to view local times or setup timezone preferences in your user account.

Time Position Orientation Groundspeed Altitude Reporting Facility
EDT Latitude Longitude Course Direction KTS MPH feet Rate Location/Type
07:19AM 41.5000 -74.0333 194° South 237 273 3,200  Level New York TRACON
07:20AM 41.4500 -74.0500 242° Southwest 277 319 4,100 360 Climbing New York TRACON
07:21AM 41.4167 -74.1333 258° West 260 299 4,000 -60 Descending New York TRACON
07:22AM 41.4000 -74.2333 258° West 254 292 4,000  Level New York TRACON
07:23AM 41.3833 -74.3333 285° West 254 292 4,000 480 Level New York TRACON
07:24AM 41.4000 -74.4167 270° West 248 285 5,000 480 Climbing New York TRACON
07:25AM 41.4000 -74.5167 255° West 259 298 5,000  Level New York TRACON
07:26AM 41.3833 -74.6000 201° Southwest 277 319 5,000  Level New York TRACON
07:27AM 41.3167 -74.6333 197° South 283 326 5,000  Level New York TRACON
07:28AM 41.2333 -74.6667 169° South 280 322 5,000  Level New York TRACON
07:29AM 41.1667 -74.6500 114° Southeast 290 334 5,000  Level New York TRACON
07:30AM 41.1333 -74.5500 129° Southeast 291 335 5,000  Level New York TRACON
07:31AM 41.0833 -74.4667 124° Southeast 256 295 5,000  Level New York TRACON
07:32AM 41.0500 -74.4000 124° Southeast 227 261 5,000  Level New York TRACON
07:33AM 41.0167 -74.3333 135° Southeast 227 261 5,000 -300 Level New York TRACON
07:34AM 40.9667 -74.2667 131° Southeast 222 255 4,400 -540 Descending New York TRACON
07:35AM 40.9333 -74.2167 123° Southeast 212 244 4,000 -240 Descending New York TRACON
07:36AM 40.9000 -74.1500 131° Southeast 205 236 4,000 -180 Level New York TRACON
07:37AM 40.8667 -74.1000 166° South 204 235 3,700 -600 Descending New York TRACON
07:38AM 40.8167 -74.0833 217° Southwest 182 209 2,900 -900 Descending New York TRACON
07:39AM 40.7833 -74.1167 201° Southwest 169 194 1,900 -960 Descending New York TRACON
07:40AM 40.7500 -74.1333 201° Southwest 145 167 1,000 -780 Descending New York TRACON
07:41AM 40.7167 -74.1500 201° Southwest 109 125 400 -600 Descending New York TRACON